Seafield, United Kingdom

5:57 PM GMT on February 28, 2015 (GMT +0000)
Eastcroft | Change Station
CLOSE
Current Station
Personal Weather Station
Location: Livingston, WEST LOTHIAN
Elevation: 427 ft
Nearby Weather Stations

Elev 427 ft 55.89 °N, 3.55 °W | Updated 51 minutes ago

Light Rain
Light Rain
41.9 °F
Feels Like 37 °F
N
6.9
Wind Variable Wind from SW
Gusts 11.4 mph

Today
High -- | Low -- °F
--% Chance of Precip.
Yesterday
High -- | Low -- °F
Precip. -- in
7:09 AM 5:45 PM
Waxing Gibbous, 79% visible
Pressure 29.09 in
Visibility 6.2 miles
Clouds Few 1800 ft
Mostly Cloudy 3100 ft
Windchill 37 °F
Dew Point 38 °F
Humidity 85%
Rainfall 0.08 in
Snow Depth Not available.
UV 0 out of 12
Pollen Not available.
Air Quality Not available.
Flu Activity Not available.
METAR EGPH 281750Z 21011KT 170V240 9999 -RA FEW018 BKN031 07/04 Q0985

More Conditions Fewer Conditions

Pressure 29.09 in
Visibility 6.2 miles
Clouds Few 1800 ft
Mostly Cloudy 3100 ft
Windchill 37 °F
Dew Point 38 °F
Humidity 85%
Rainfall 0.08 in
Snow Depth Not available.
UV 0 out of 12
Pollen Not available.
Air Quality Not available.
Flu Activity Not available.
METAR EGPH 281750Z 21011KT 170V240 9999 -RA FEW018 BKN031 07/04 Q0985

More Conditions Fewer Conditions

10-Day Weather Forecast

Almanac

Astronomy

Feb. 28, 2015 Rise Set
Actual Time
Civil Twilight
Nautical Twilight
Astronomical Twilight
Moon
Length of Visible Light
Length of Day
Tomorrow will be .
, % of the Moon is Illuminated

Today's Extremes

Country Highs Country Lows

Community

WunderPhotos

Upload Photos

1,801,102 photos uploaded!

WunderBlogs® & News

Nearby

Air Quality

  Air Quality AQ Index Pollutant
Not available.

Snow Depth

Station Depth Elevation

Earthquake Activity

City Distance Mag. Time & Date
Minimum magnitude displayed is 2.5.

Coastal Water Temperatures

Place Temperature

Nearby Weather Stations